sensor_id;sensor_type;location;lat;lon;timestamp;P1;durP1;ratioP1;P2;durP2;ratioP2
52031;SDS011;38044;45.148;39.604;2023-09-08T00:01:25;4.38;;;1.77;;
52031;SDS011;38044;45.148;39.604;2023-09-08T00:03:51;3.45;;;1.50;;
52031;SDS011;38044;45.148;39.604;2023-09-08T00:06:17;3.97;;;1.60;;
52031;SDS011;38044;45.148;39.604;2023-09-08T00:08:43;6.00;;;1.58;;
52031;SDS011;38044;45.148;39.604;2023-09-08T00:11:09;4.82;;;1.60;;
52031;SDS011;38044;45.148;39.604;2023-09-08T00:13:35;4.75;;;1.60;;
52031;SDS011;38044;45.148;39.604;2023-09-08T00:16:00;2.92;;;1.40;;
52031;SDS011;38044;45.148;39.604;2023-09-08T00:18:26;3.72;;;1.88;;
52031;SDS011;38044;45.148;39.604;2023-09-08T00:20:52;4.68;;;1.83;;
52031;SDS011;38044;45.148;39.604;2023-09-08T00:23:18;2.58;;;1.60;;
52031;SDS011;38044;45.148;39.604;2023-09-08T00:25:44;4.82;;;1.77;;
52031;SDS011;38044;45.148;39.604;2023-09-08T00:28:09;4.53;;;2.13;;
52031;SDS011;38044;45.148;39.604;2023-09-08T00:30:35;5.85;;;2.50;;
52031;SDS011;38044;45.148;39.604;2023-09-08T00:33:01;5.20;;;2.30;;
52031;SDS011;38044;45.148;39.604;2023-09-08T00:35:27;6.47;;;2.33;;
52031;SDS011;38044;45.148;39.604;2023-09-08T00:37:53;6.57;;;2.25;;
52031;SDS011;38044;45.148;39.604;2023-09-08T00:40:18;6.07;;;2.17;;
52031;SDS011;38044;45.148;39.604;2023-09-08T00:42:44;4.90;;;2.33;;
52031;SDS011;38044;45.148;39.604;2023-09-08T00:45:10;4.38;;;1.67;;
52031;SDS011;38044;45.148;39.604;2023-09-08T00:47:36;3.25;;;1.67;;
52031;SDS011;38044;45.148;39.604;2023-09-08T00:50:03;4.35;;;1.73;;
52031;SDS011;38044;45.148;39.604;2023-09-08T00:52:29;5.45;;;2.03;;
52031;SDS011;38044;45.148;39.604;2023-09-08T00:54:57;3.97;;;1.90;;
52031;SDS011;38044;45.148;39.604;2023-09-08T00:57:24;3.80;;;1.20;;
52031;SDS011;38044;45.148;39.604;2023-09-08T00:59:50;2.22;;;1.40;;
52031;SDS011;38044;45.148;39.604;2023-09-08T01:02:16;2.63;;;1.10;;
52031;SDS011;38044;45.148;39.604;2023-09-08T01:04:42;9.50;;;2.00;;
52031;SDS011;38044;45.148;39.604;2023-09-08T01:07:10;3.30;;;1.45;;
52031;SDS011;38044;45.148;39.604;2023-09-08T01:09:36;1.95;;;1.20;;
52031;SDS011;38044;45.148;39.604;2023-09-08T01:12:03;3.42;;;1.20;;
52031;SDS011;38044;45.148;39.604;2023-09-08T01:14:31;2.28;;;1.25;;
52031;SDS011;38044;45.148;39.604;2023-09-08T01:16:57;1.90;;;1.52;;
52031;SDS011;38044;45.148;39.604;2023-09-08T01:19:23;4.38;;;1.33;;
52031;SDS011;38044;45.148;39.604;2023-09-08T01:27:22;4.35;;;1.50;;
52031;SDS011;38044;45.148;39.604;2023-09-08T01:29:50;5.20;;;1.30;;
52031;SDS011;38044;45.148;39.604;2023-09-08T01:32:17;2.75;;;1.48;;
52031;SDS011;38044;45.148;39.604;2023-09-08T01:34:43;2.95;;;1.40;;
52031;SDS011;38044;45.148;39.604;2023-09-08T01:37:09;2.72;;;1.45;;
52031;SDS011;38044;45.148;39.604;2023-09-08T01:39:34;6.10;;;1.90;;
52031;SDS011;38044;45.148;39.604;2023-09-08T01:42:01;3.78;;;1.60;;
52031;SDS011;38044;45.148;39.604;2023-09-08T01:44:26;4.78;;;1.70;;
52031;SDS011;38044;45.148;39.604;2023-09-08T01:46:52;4.72;;;1.40;;
52031;SDS011;38044;45.148;39.604;2023-09-08T01:49:25;3.05;;;1.50;;
52031;SDS011;38044;45.148;39.604;2023-09-08T01:51:51;4.80;;;1.70;;
52031;SDS011;38044;45.148;39.604;2023-09-08T01:54:17;3.13;;;1.70;;
52031;SDS011;38044;45.148;39.604;2023-09-08T01:56:43;5.13;;;1.50;;
52031;SDS011;38044;45.148;39.604;2023-09-08T01:59:09;4.50;;;1.52;;
52031;SDS011;38044;45.148;39.604;2023-09-08T02:01:35;4.38;;;1.95;;
52031;SDS011;38044;45.148;39.604;2023-09-08T02:04:01;3.97;;;1.67;;
52031;SDS011;38044;45.148;39.604;2023-09-08T02:06:27;4.28;;;1.48;;
52031;SDS011;38044;45.148;39.604;2023-09-08T02:08:53;3.45;;;1.58;;
52031;SDS011;38044;45.148;39.604;2023-09-08T02:11:19;3.08;;;1.70;;
52031;SDS011;38044;45.148;39.604;2023-09-08T02:13:45;3.45;;;1.90;;
52031;SDS011;38044;45.148;39.604;2023-09-08T02:16:14;2.83;;;1.70;;
52031;SDS011;38044;45.148;39.604;2023-09-08T02:18:43;3.35;;;1.60;;
52031;SDS011;38044;45.148;39.604;2023-09-08T02:21:10;2.35;;;1.40;;
52031;SDS011;38044;45.148;39.604;2023-09-08T02:23:36;2.33;;;1.45;;
52031;SDS011;38044;45.148;39.604;2023-09-08T02:26:03;4.10;;;1.60;;
52031;SDS011;38044;45.148;39.604;2023-09-08T02:28:29;3.00;;;1.65;;
52031;SDS011;38044;45.148;39.604;2023-09-08T02:30:55;2.30;;;1.50;;
52031;SDS011;38044;45.148;39.604;2023-09-08T02:33:21;7.95;;;1.80;;
52031;SDS011;38044;45.148;39.604;2023-09-08T02:35:46;3.58;;;1.83;;
52031;SDS011;38044;45.148;39.604;2023-09-08T02:38:12;8.90;;;2.08;;
52031;SDS011;38044;45.148;39.604;2023-09-08T02:40:38;11.82;;;2.42;;
52031;SDS011;38044;45.148;39.604;2023-09-08T02:43:04;6.35;;;2.30;;
52031;SDS011;38044;45.148;39.604;2023-09-08T02:45:30;6.50;;;2.20;;
52031;SDS011;38044;45.148;39.604;2023-09-08T02:47:56;4.00;;;2.20;;
52031;SDS011;38044;45.148;39.604;2023-09-08T02:50:22;4.38;;;2.03;;
52031;SDS011;38044;45.148;39.604;2023-09-08T02:52:48;4.95;;;2.25;;
52031;SDS011;38044;45.148;39.604;2023-09-08T02:55:14;5.90;;;2.28;;
52031;SDS011;38044;45.148;39.604;2023-09-08T02:57:40;2.85;;;1.50;;
52031;SDS011;38044;45.148;39.604;2023-09-08T03:00:07;4.70;;;1.30;;
52031;SDS011;38044;45.148;39.604;2023-09-08T03:02:33;3.40;;;1.60;;
52031;SDS011;38044;45.148;39.604;2023-09-08T03:04:59;3.90;;;1.65;;
52031;SDS011;38044;45.148;39.604;2023-09-08T03:07:26;4.68;;;1.83;;
52031;SDS011;38044;45.148;39.604;2023-09-08T03:09:52;2.97;;;1.63;;
52031;SDS011;38044;45.148;39.604;2023-09-08T03:12:18;3.80;;;2.17;;
52031;SDS011;38044;45.148;39.604;2023-09-08T03:14:44;4.70;;;2.20;;
52031;SDS011;38044;45.148;39.604;2023-09-08T03:17:11;4.60;;;2.10;;
52031;SDS011;38044;45.148;39.604;2023-09-08T03:19:38;3.42;;;2.05;;
52031;SDS011;38044;45.148;39.604;2023-09-08T03:22:04;5.05;;;1.98;;
52031;SDS011;38044;45.148;39.604;2023-09-08T03:24:30;5.90;;;1.90;;
52031;SDS011;38044;45.148;39.604;2023-09-08T03:26:56;4.57;;;1.70;;
52031;SDS011;38044;45.148;39.604;2023-09-08T03:29:23;3.15;;;1.65;;
52031;SDS011;38044;45.148;39.604;2023-09-08T03:31:49;3.40;;;1.60;;
52031;SDS011;38044;45.148;39.604;2023-09-08T03:34:14;4.30;;;1.50;;
52031;SDS011;38044;45.148;39.604;2023-09-08T03:36:40;4.88;;;1.70;;
52031;SDS011;38044;45.148;39.604;2023-09-08T03:39:06;4.85;;;1.67;;
52031;SDS011;38044;45.148;39.604;2023-09-08T03:41:34;5.95;;;2.00;;
52031;SDS011;38044;45.148;39.604;2023-09-08T03:44:00;3.97;;;1.70;;
52031;SDS011;38044;45.148;39.604;2023-09-08T03:46:26;3.17;;;1.30;;
52031;SDS011;38044;45.148;39.604;2023-09-08T03:48:52;4.45;;;1.38;;
52031;SDS011;38044;45.148;39.604;2023-09-08T03:51:23;4.35;;;1.63;;
52031;SDS011;38044;45.148;39.604;2023-09-08T03:53:49;2.55;;;1.55;;
52031;SDS011;38044;45.148;39.604;2023-09-08T03:56:16;4.15;;;1.60;;
52031;SDS011;38044;45.148;39.604;2023-09-08T03:58:43;5.03;;;1.40;;
52031;SDS011;38044;45.148;39.604;2023-09-08T04:01:09;2.05;;;1.23;;
52031;SDS011;38044;45.148;39.604;2023-09-08T04:03:35;5.75;;;1.40;;
52031;SDS011;38044;45.148;39.604;2023-09-08T04:06:02;2.83;;;1.30;;
52031;SDS011;38044;45.148;39.604;2023-09-08T04:08:28;6.10;;;1.30;;
52031;SDS011;38044;45.148;39.604;2023-09-08T04:10:54;2.92;;;1.10;;
52031;SDS011;38044;45.148;39.604;2023-09-08T04:13:20;2.75;;;1.67;;
52031;SDS011;38044;45.148;39.604;2023-09-08T04:15:46;3.53;;;1.70;;
52031;SDS011;38044;45.148;39.604;2023-09-08T04:18:11;13.18;;;2.15;;
52031;SDS011;38044;45.148;39.604;2023-09-08T04:20:37;4.60;;;1.50;;
52031;SDS011;38044;45.148;39.604;2023-09-08T04:23:03;3.03;;;1.40;;
52031;SDS011;38044;45.148;39.604;2023-09-08T04:25:29;3.63;;;1.40;;
52031;SDS011;38044;45.148;39.604;2023-09-08T04:27:55;7.00;;;1.52;;
52031;SDS011;38044;45.148;39.604;2023-09-08T04:30:22;7.60;;;1.85;;
52031;SDS011;38044;45.148;39.604;2023-09-08T04:32:47;4.07;;;2.20;;
52031;SDS011;38044;45.148;39.604;2023-09-08T04:35:13;15.80;;;2.20;;
52031;SDS011;38044;45.148;39.604;2023-09-08T04:37:39;6.10;;;2.28;;
52031;SDS011;38044;45.148;39.604;2023-09-08T04:40:05;5.75;;;2.63;;
52031;SDS011;38044;45.148;39.604;2023-09-08T04:42:32;7.47;;;2.75;;
52031;SDS011;38044;45.148;39.604;2023-09-08T04:44:58;11.90;;;3.00;;
52031;SDS011;38044;45.148;39.604;2023-09-08T04:47:24;9.93;;;2.92;;
52031;SDS011;38044;45.148;39.604;2023-09-08T04:49:50;7.00;;;3.30;;
52031;SDS011;38044;45.148;39.604;2023-09-08T04:52:15;6.97;;;3.22;;
52031;SDS011;38044;45.148;39.604;2023-09-08T04:54:41;7.65;;;2.35;;
52031;SDS011;38044;45.148;39.604;2023-09-08T04:57:07;13.52;;;2.70;;
52031;SDS011;38044;45.148;39.604;2023-09-08T04:59:33;6.60;;;1.98;;
52031;SDS011;38044;45.148;39.604;2023-09-08T05:02:02;4.85;;;1.75;;
52031;SDS011;38044;45.148;39.604;2023-09-08T05:04:28;3.75;;;1.60;;
52031;SDS011;38044;45.148;39.604;2023-09-08T05:06:53;4.30;;;1.60;;
52031;SDS011;38044;45.148;39.604;2023-09-08T05:09:19;4.97;;;1.75;;
52031;SDS011;38044;45.148;39.604;2023-09-08T05:11:45;3.33;;;1.65;;
52031;SDS011;38044;45.148;39.604;2023-09-08T05:14:11;5.97;;;1.48;;
52031;SDS011;38044;45.148;39.604;2023-09-08T05:16:37;3.78;;;1.23;;
52031;SDS011;38044;45.148;39.604;2023-09-08T05:19:11;2.97;;;1.33;;
52031;SDS011;38044;45.148;39.604;2023-09-08T05:21:40;2.60;;;1.60;;
52031;SDS011;38044;45.148;39.604;2023-09-08T05:24:08;12.50;;;2.05;;
52031;SDS011;38044;45.148;39.604;2023-09-08T05:26:36;3.35;;;1.40;;
52031;SDS011;38044;45.148;39.604;2023-09-08T05:29:02;2.60;;;1.52;;
52031;SDS011;38044;45.148;39.604;2023-09-08T05:31:28;5.15;;;1.67;;
52031;SDS011;38044;45.148;39.604;2023-09-08T05:33:54;5.05;;;1.30;;
52031;SDS011;38044;45.148;39.604;2023-09-08T05:36:20;2.65;;;1.30;;
52031;SDS011;38044;45.148;39.604;2023-09-08T05:38:46;5.18;;;1.70;;
52031;SDS011;38044;45.148;39.604;2023-09-08T05:41:11;3.85;;;1.38;;
52031;SDS011;38044;45.148;39.604;2023-09-08T05:43:37;5.35;;;1.50;;
52031;SDS011;38044;45.148;39.604;2023-09-08T05:46:03;3.88;;;1.20;;
52031;SDS011;38044;45.148;39.604;2023-09-08T05:48:29;1.95;;;1.10;;
52031;SDS011;38044;45.148;39.604;2023-09-08T05:50:55;1.40;;;1.05;;
52031;SDS011;38044;45.148;39.604;2023-09-08T05:53:21;21.08;;;2.72;;
52031;SDS011;38044;45.148;39.604;2023-09-08T05:55:47;2.67;;;1.25;;
52031;SDS011;38044;45.148;39.604;2023-09-08T05:58:12;4.47;;;1.20;;
52031;SDS011;38044;45.148;39.604;2023-09-08T06:00:38;2.28;;;1.02;;
52031;SDS011;38044;45.148;39.604;2023-09-08T06:03:04;2.90;;;1.10;;
52031;SDS011;38044;45.148;39.604;2023-09-08T06:05:30;5.57;;;1.15;;
52031;SDS011;38044;45.148;39.604;2023-09-08T06:07:56;3.13;;;1.25;;
52031;SDS011;38044;45.148;39.604;2023-09-08T06:10:22;3.75;;;1.23;;
52031;SDS011;38044;45.148;39.604;2023-09-08T06:12:48;2.17;;;0.80;;
52031;SDS011;38044;45.148;39.604;2023-09-08T06:15:16;9.50;;;1.10;;
52031;SDS011;38044;45.148;39.604;2023-09-08T06:17:42;1.70;;;0.90;;
52031;SDS011;38044;45.148;39.604;2023-09-08T06:20:08;3.03;;;1.10;;
52031;SDS011;38044;45.148;39.604;2023-09-08T06:22:34;3.15;;;0.90;;
52031;SDS011;38044;45.148;39.604;2023-09-08T06:25:00;6.65;;;1.10;;
52031;SDS011;38044;45.148;39.604;2023-09-08T06:27:26;4.43;;;0.95;;
52031;SDS011;38044;45.148;39.604;2023-09-08T06:29:52;5.95;;;0.80;;
52031;SDS011;38044;45.148;39.604;2023-09-08T06:32:18;1.25;;;0.70;;
52031;SDS011;38044;45.148;39.604;2023-09-08T06:34:44;4.15;;;1.00;;
52031;SDS011;38044;45.148;39.604;2023-09-08T06:37:10;4.38;;;0.73;;
52031;SDS011;38044;45.148;39.604;2023-09-08T06:39:36;5.28;;;1.15;;
52031;SDS011;38044;45.148;39.604;2023-09-08T06:42:02;3.15;;;0.70;;
52031;SDS011;38044;45.148;39.604;2023-09-08T06:44:28;3.10;;;0.90;;
52031;SDS011;38044;45.148;39.604;2023-09-08T06:46:54;2.05;;;0.98;;
52031;SDS011;38044;45.148;39.604;2023-09-08T06:49:19;4.55;;;0.88;;
52031;SDS011;38044;45.148;39.604;2023-09-08T06:51:45;3.25;;;0.82;;
52031;SDS011;38044;45.148;39.604;2023-09-08T06:54:13;1.55;;;0.70;;
52031;SDS011;38044;45.148;39.604;2023-09-08T06:56:39;1.92;;;0.80;;
52031;SDS011;38044;45.148;39.604;2023-09-08T06:59:05;5.93;;;1.98;;
52031;SDS011;38044;45.148;39.604;2023-09-08T07:01:31;4.10;;;1.17;;
52031;SDS011;38044;45.148;39.604;2023-09-08T07:03:56;4.32;;;1.10;;
52031;SDS011;38044;45.148;39.604;2023-09-08T07:06:22;2.65;;;1.10;;
52031;SDS011;38044;45.148;39.604;2023-09-08T07:08:49;1.65;;;0.90;;
52031;SDS011;38044;45.148;39.604;2023-09-08T07:11:15;1.70;;;1.10;;
52031;SDS011;38044;45.148;39.604;2023-09-08T07:13:41;4.05;;;1.40;;
52031;SDS011;38044;45.148;39.604;2023-09-08T07:16:07;4.30;;;1.30;;
52031;SDS011;38044;45.148;39.604;2023-09-08T07:18:33;3.75;;;1.05;;
52031;SDS011;38044;45.148;39.604;2023-09-08T07:21:01;4.97;;;1.80;;
52031;SDS011;38044;45.148;39.604;2023-09-08T07:23:27;8.50;;;2.20;;
52031;SDS011;38044;45.148;39.604;2023-09-08T07:25:53;3.53;;;1.50;;
52031;SDS011;38044;45.148;39.604;2023-09-08T07:28:19;2.22;;;1.15;;
52031;SDS011;38044;45.148;39.604;2023-09-08T07:30:45;4.95;;;1.08;;
52031;SDS011;38044;45.148;39.604;2023-09-08T07:33:11;1.50;;;1.00;;
52031;SDS011;38044;45.148;39.604;2023-09-08T07:35:37;2.60;;;1.00;;
52031;SDS011;38044;45.148;39.604;2023-09-08T07:38:04;1.25;;;0.90;;
52031;SDS011;38044;45.148;39.604;2023-09-08T07:40:31;3.35;;;1.00;;
52031;SDS011;38044;45.148;39.604;2023-09-08T07:42:57;11.95;;;1.83;;
52031;SDS011;38044;45.148;39.604;2023-09-08T07:45:23;2.03;;;0.90;;
52031;SDS011;38044;45.148;39.604;2023-09-08T07:47:49;2.22;;;0.90;;
52031;SDS011;38044;45.148;39.604;2023-09-08T07:50:19;1.55;;;0.90;;
52031;SDS011;38044;45.148;39.604;2023-09-08T07:52:47;3.88;;;1.30;;
52031;SDS011;38044;45.148;39.604;2023-09-08T07:55:14;15.10;;;2.38;;
52031;SDS011;38044;45.148;39.604;2023-09-08T07:57:43;7.82;;;1.25;;
52031;SDS011;38044;45.148;39.604;2023-09-08T08:00:12;4.13;;;1.33;;
52031;SDS011;38044;45.148;39.604;2023-09-08T08:02:42;3.90;;;1.45;;
52031;SDS011;38044;45.148;39.604;2023-09-08T08:05:12;5.07;;;1.30;;
52031;SDS011;38044;45.148;39.604;2023-09-08T08:07:38;3.28;;;1.15;;
52031;SDS011;38044;45.148;39.604;2023-09-08T08:10:05;3.58;;;0.80;;
52031;SDS011;38044;45.148;39.604;2023-09-08T08:12:32;4.68;;;1.38;;
52031;SDS011;38044;45.148;39.604;2023-09-08T08:14:58;1.98;;;1.00;;
52031;SDS011;38044;45.148;39.604;2023-09-08T08:17:27;4.70;;;1.50;;
52031;SDS011;38044;45.148;39.604;2023-09-08T08:19:56;2.75;;;0.95;;
52031;SDS011;38044;45.148;39.604;2023-09-08T08:22:24;3.17;;;1.23;;
52031;SDS011;38044;45.148;39.604;2023-09-08T08:24:50;3.28;;;1.40;;
52031;SDS011;38044;45.148;39.604;2023-09-08T08:27:16;2.97;;;1.10;;
52031;SDS011;38044;45.148;39.604;2023-09-08T08:29:42;6.45;;;1.15;;
52031;SDS011;38044;45.148;39.604;2023-09-08T08:32:08;5.55;;;1.30;;
52031;SDS011;38044;45.148;39.604;2023-09-08T08:34:34;4.13;;;1.15;;
52031;SDS011;38044;45.148;39.604;2023-09-08T08:37:00;3.38;;;1.50;;
52031;SDS011;38044;45.148;39.604;2023-09-08T08:39:26;3.90;;;1.17;;
52031;SDS011;38044;45.148;39.604;2023-09-08T08:41:53;3.70;;;1.38;;
52031;SDS011;38044;45.148;39.604;2023-09-08T08:44:18;20.23;;;2.60;;
52031;SDS011;38044;45.148;39.604;2023-09-08T08:46:46;4.63;;;1.08;;
52031;SDS011;38044;45.148;39.604;2023-09-08T08:49:14;3.90;;;1.08;;
52031;SDS011;38044;45.148;39.604;2023-09-08T08:51:44;3.78;;;1.40;;
52031;SDS011;38044;45.148;39.604;2023-09-08T08:54:13;3.45;;;0.90;;
52031;SDS011;38044;45.148;39.604;2023-09-08T08:56:41;5.60;;;1.33;;
52031;SDS011;38044;45.148;39.604;2023-09-08T08:59:08;6.80;;;1.13;;
52031;SDS011;38044;45.148;39.604;2023-09-08T09:01:36;4.53;;;1.17;;
52031;SDS011;38044;45.148;39.604;2023-09-08T09:04:03;1.77;;;0.70;;
52031;SDS011;38044;45.148;39.604;2023-09-08T09:06:31;8.00;;;1.00;;
52031;SDS011;38044;45.148;39.604;2023-09-08T09:08:57;3.30;;;1.00;;
52031;SDS011;38044;45.148;39.604;2023-09-08T09:11:24;5.78;;;1.30;;
52031;SDS011;38044;45.148;39.604;2023-09-08T09:13:50;1.50;;;0.90;;
52031;SDS011;38044;45.148;39.604;2023-09-08T09:16:16;1.98;;;1.10;;
52031;SDS011;38044;45.148;39.604;2023-09-08T09:19:17;9.88;;;1.33;;
52031;SDS011;38044;45.148;39.604;2023-09-08T09:21:44;1.33;;;0.80;;
52031;SDS011;38044;45.148;39.604;2023-09-08T09:24:28;2.58;;;1.00;;
52031;SDS011;38044;45.148;39.604;2023-09-08T09:27:04;1.98;;;0.80;;
52031;SDS011;38044;45.148;39.604;2023-09-08T09:29:33;4.40;;;1.30;;
52031;SDS011;38044;45.148;39.604;2023-09-08T09:32:09;2.90;;;0.70;;
52031;SDS011;38044;45.148;39.604;2023-09-08T09:34:35;2.20;;;1.10;;
52031;SDS011;38044;45.148;39.604;2023-09-08T09:37:01;5.93;;;1.10;;
52031;SDS011;38044;45.148;39.604;2023-09-08T09:39:30;3.40;;;1.13;;
52031;SDS011;38044;45.148;39.604;2023-09-08T09:41:56;4.00;;;0.95;;
52031;SDS011;38044;45.148;39.604;2023-09-08T09:44:23;5.88;;;1.30;;
52031;SDS011;38044;45.148;39.604;2023-09-08T09:46:53;2.42;;;1.40;;
52031;SDS011;38044;45.148;39.604;2023-09-08T09:49:19;4.82;;;1.40;;
52031;SDS011;38044;45.148;39.604;2023-09-08T09:51:47;4.57;;;1.10;;
52031;SDS011;38044;45.148;39.604;2023-09-08T09:54:13;3.28;;;0.95;;
52031;SDS011;38044;45.148;39.604;2023-09-08T09:56:40;2.53;;;0.65;;
52031;SDS011;38044;45.148;39.604;2023-09-08T09:59:10;2.88;;;0.90;;
52031;SDS011;38044;45.148;39.604;2023-09-08T10:01:38;2.97;;;0.70;;
52031;SDS011;38044;45.148;39.604;2023-09-08T10:04:05;4.03;;;1.00;;
52031;SDS011;38044;45.148;39.604;2023-09-08T10:06:32;3.15;;;0.70;;
52031;SDS011;38044;45.148;39.604;2023-09-08T10:09:02;2.58;;;0.60;;
52031;SDS011;38044;45.148;39.604;2023-09-08T10:11:34;6.28;;;0.90;;
52031;SDS011;38044;45.148;39.604;2023-09-08T10:14:04;2.20;;;0.88;;
52031;SDS011;38044;45.148;39.604;2023-09-08T10:16:33;2.78;;;0.77;;
52031;SDS011;38044;45.148;39.604;2023-09-08T10:19:00;2.35;;;0.93;;
52031;SDS011;38044;45.148;39.604;2023-09-08T10:21:29;3.58;;;1.33;;
52031;SDS011;38044;45.148;39.604;2023-09-08T10:24:11;1.85;;;1.02;;
52031;SDS011;38044;45.148;39.604;2023-09-08T10:26:58;1.40;;;0.73;;
52031;SDS011;38044;45.148;39.604;2023-09-08T10:29:33;5.82;;;0.98;;
52031;SDS011;38044;45.148;39.604;2023-09-08T10:32:00;4.65;;;1.20;;
52031;SDS011;38044;45.148;39.604;2023-09-08T10:34:27;4.10;;;0.80;;
52031;SDS011;38044;45.148;39.604;2023-09-08T10:36:55;2.83;;;0.77;;
52031;SDS011;38044;45.148;39.604;2023-09-08T10:39:28;2.20;;;0.85;;
52031;SDS011;38044;45.148;39.604;2023-09-08T10:47:21;5.35;;;0.90;;
52031;SDS011;38044;45.148;39.604;2023-09-08T10:49:48;1.98;;;1.15;;
52031;SDS011;38044;45.148;39.604;2023-09-08T10:52:15;9.38;;;1.95;;
52031;SDS011;38044;45.148;39.604;2023-09-08T10:57:15;7.32;;;0.90;;
52031;SDS011;38044;45.148;39.604;2023-09-08T10:59:55;9.18;;;1.30;;
52031;SDS011;38044;45.148;39.604;2023-09-08T11:05:08;6.10;;;0.82;;
52031;SDS011;38044;45.148;39.604;2023-09-08T11:07:36;7.22;;;0.70;;
52031;SDS011;38044;45.148;39.604;2023-09-08T11:10:03;2.85;;;0.90;;
52031;SDS011;38044;45.148;39.604;2023-09-08T11:12:30;4.70;;;0.73;;
52031;SDS011;38044;45.148;39.604;2023-09-08T11:14:57;3.40;;;0.82;;
52031;SDS011;38044;45.148;39.604;2023-09-08T11:17:26;1.02;;;0.73;;
52031;SDS011;38044;45.148;39.604;2023-09-08T11:19:53;7.03;;;0.85;;
52031;SDS011;38044;45.148;39.604;2023-09-08T11:22:21;4.00;;;0.80;;
52031;SDS011;38044;45.148;39.604;2023-09-08T11:24:55;3.80;;;0.98;;
52031;SDS011;38044;45.148;39.604;2023-09-08T11:27:22;4.38;;;0.95;;
52031;SDS011;38044;45.148;39.604;2023-09-08T11:29:49;4.00;;;0.95;;
52031;SDS011;38044;45.148;39.604;2023-09-08T11:32:16;4.63;;;0.70;;
52031;SDS011;38044;45.148;39.604;2023-09-08T11:34:43;2.28;;;0.80;;
52031;SDS011;38044;45.148;39.604;2023-09-08T11:37:09;3.25;;;1.00;;
52031;SDS011;38044;45.148;39.604;2023-09-08T11:39:38;2.03;;;0.85;;
52031;SDS011;38044;45.148;39.604;2023-09-08T11:42:06;1.88;;;0.60;;
52031;SDS011;38044;45.148;39.604;2023-09-08T11:44:36;4.20;;;0.82;;
52031;SDS011;38044;45.148;39.604;2023-09-08T11:47:03;3.38;;;0.98;;
52031;SDS011;38044;45.148;39.604;2023-09-08T11:49:33;1.80;;;0.70;;
52031;SDS011;38044;45.148;39.604;2023-09-08T11:52:00;5.10;;;1.00;;
52031;SDS011;38044;45.148;39.604;2023-09-08T11:54:26;2.22;;;0.60;;
52031;SDS011;38044;45.148;39.604;2023-09-08T11:56:53;18.98;;;2.10;;
52031;SDS011;38044;45.148;39.604;2023-09-08T11:59:19;1.92;;;0.82;;
52031;SDS011;38044;45.148;39.604;2023-09-08T12:01:45;3.13;;;0.80;;
52031;SDS011;38044;45.148;39.604;2023-09-08T12:04:20;3.03;;;0.95;;
52031;SDS011;38044;45.148;39.604;2023-09-08T12:06:46;9.57;;;1.23;;
52031;SDS011;38044;45.148;39.604;2023-09-08T12:09:14;3.92;;;0.70;;
52031;SDS011;38044;45.148;39.604;2023-09-08T12:11:39;2.95;;;1.08;;
52031;SDS011;38044;45.148;39.604;2023-09-08T12:14:11;1.60;;;0.90;;
52031;SDS011;38044;45.148;39.604;2023-09-08T12:16:39;3.22;;;0.98;;
52031;SDS011;38044;45.148;39.604;2023-09-08T12:19:06;4.38;;;0.90;;
52031;SDS011;38044;45.148;39.604;2023-09-08T12:21:35;3.10;;;0.70;;
52031;SDS011;38044;45.148;39.604;2023-09-08T12:27:25;4.20;;;1.10;;
52031;SDS011;38044;45.148;39.604;2023-09-08T12:29:52;7.38;;;1.00;;
52031;SDS011;38044;45.148;39.604;2023-09-08T12:32:21;12.15;;;1.33;;
52031;SDS011;38044;45.148;39.604;2023-09-08T12:34:48;3.92;;;0.90;;
52031;SDS011;38044;45.148;39.604;2023-09-08T12:37:14;13.90;;;2.08;;
52031;SDS011;38044;45.148;39.604;2023-09-08T12:39:40;2.28;;;0.90;;
52031;SDS011;38044;45.148;39.604;2023-09-08T12:42:05;1.40;;;0.75;;
52031;SDS011;38044;45.148;39.604;2023-09-08T12:44:31;7.75;;;1.13;;
52031;SDS011;38044;45.148;39.604;2023-09-08T12:46:57;7.22;;;1.08;;
52031;SDS011;38044;45.148;39.604;2023-09-08T12:49:23;1.23;;;0.77;;
52031;SDS011;38044;45.148;39.604;2023-09-08T12:51:49;7.38;;;1.00;;
52031;SDS011;38044;45.148;39.604;2023-09-08T12:54:15;4.38;;;0.90;;
52031;SDS011;38044;45.148;39.604;2023-09-08T12:56:41;3.47;;;0.88;;
52031;SDS011;38044;45.148;39.604;2023-09-08T12:59:06;3.35;;;0.80;;
52031;SDS011;38044;45.148;39.604;2023-09-08T13:01:32;3.92;;;0.90;;
52031;SDS011;38044;45.148;39.604;2023-09-08T13:03:58;7.15;;;1.15;;
52031;SDS011;38044;45.148;39.604;2023-09-08T13:06:24;4.35;;;1.00;;
52031;SDS011;38044;45.148;39.604;2023-09-08T13:08:50;5.30;;;1.10;;
52031;SDS011;38044;45.148;39.604;2023-09-08T13:11:15;3.70;;;1.13;;
52031;SDS011;38044;45.148;39.604;2023-09-08T13:13:41;4.40;;;1.10;;
52031;SDS011;38044;45.148;39.604;2023-09-08T13:16:07;15.57;;;1.85;;
52031;SDS011;38044;45.148;39.604;2023-09-08T13:18:33;2.58;;;1.20;;
52031;SDS011;38044;45.148;39.604;2023-09-08T13:21:02;8.00;;;1.13;;
52031;SDS011;38044;45.148;39.604;2023-09-08T13:23:28;3.08;;;0.93;;
52031;SDS011;38044;45.148;39.604;2023-09-08T13:25:54;2.95;;;0.85;;
52031;SDS011;38044;45.148;39.604;2023-09-08T13:28:20;5.47;;;1.20;;
52031;SDS011;38044;45.148;39.604;2023-09-08T13:30:45;2.65;;;0.88;;
52031;SDS011;38044;45.148;39.604;2023-09-08T13:33:11;5.95;;;0.98;;
52031;SDS011;38044;45.148;39.604;2023-09-08T13:35:37;3.28;;;0.90;;
52031;SDS011;38044;45.148;39.604;2023-09-08T13:38:04;4.88;;;1.20;;
52031;SDS011;38044;45.148;39.604;2023-09-08T13:40:30;4.35;;;0.82;;
52031;SDS011;38044;45.148;39.604;2023-09-08T13:42:56;1.55;;;0.93;;
52031;SDS011;38044;45.148;39.604;2023-09-08T13:45:22;3.67;;;1.00;;
52031;SDS011;38044;45.148;39.604;2023-09-08T13:47:47;1.65;;;0.60;;
52031;SDS011;38044;45.148;39.604;2023-09-08T13:50:13;3.92;;;1.10;;
52031;SDS011;38044;45.148;39.604;2023-09-08T13:52:39;10.10;;;1.20;;
52031;SDS011;38044;45.148;39.604;2023-09-08T13:55:05;2.35;;;0.70;;
52031;SDS011;38044;45.148;39.604;2023-09-08T13:57:32;5.35;;;0.93;;
52031;SDS011;38044;45.148;39.604;2023-09-08T13:59:57;4.82;;;0.80;;
52031;SDS011;38044;45.148;39.604;2023-09-08T14:02:23;5.05;;;0.95;;
52031;SDS011;38044;45.148;39.604;2023-09-08T14:04:51;23.40;;;1.80;;
52031;SDS011;38044;45.148;39.604;2023-09-08T14:07:17;1.90;;;0.80;;
52031;SDS011;38044;45.148;39.604;2023-09-08T14:09:43;5.28;;;1.00;;
52031;SDS011;38044;45.148;39.604;2023-09-08T14:12:09;2.63;;;0.70;;
52031;SDS011;38044;45.148;39.604;2023-09-08T14:14:35;3.72;;;1.10;;
52031;SDS011;38044;45.148;39.604;2023-09-08T14:17:00;3.75;;;0.63;;
52031;SDS011;38044;45.148;39.604;2023-09-08T14:19:26;3.60;;;0.82;;
52031;SDS011;38044;45.148;39.604;2023-09-08T14:21:52;3.90;;;0.70;;
52031;SDS011;38044;45.148;39.604;2023-09-08T14:24:18;7.80;;;0.82;;
52031;SDS011;38044;45.148;39.604;2023-09-08T14:26:44;9.68;;;1.10;;
52031;SDS011;38044;45.148;39.604;2023-09-08T14:29:10;6.07;;;0.95;;
52031;SDS011;38044;45.148;39.604;2023-09-08T14:31:36;3.15;;;1.08;;
52031;SDS011;38044;45.148;39.604;2023-09-08T14:34:02;2.55;;;0.73;;
52031;SDS011;38044;45.148;39.604;2023-09-08T14:36:28;6.38;;;1.08;;
52031;SDS011;38044;45.148;39.604;2023-09-08T14:38:54;2.47;;;0.43;;
52031;SDS011;38044;45.148;39.604;2023-09-08T14:41:21;7.00;;;1.40;;
52031;SDS011;38044;45.148;39.604;2023-09-08T14:43:47;2.10;;;0.93;;
52031;SDS011;38044;45.148;39.604;2023-09-08T14:46:12;3.78;;;0.63;;
52031;SDS011;38044;45.148;39.604;2023-09-08T14:48:38;3.45;;;1.42;;
52031;SDS011;38044;45.148;39.604;2023-09-08T14:51:04;3.55;;;1.00;;